Time;durP1;ratioP1;P1;durP2;ratioP2;P2;SDS_P1;SDS_P2;PMS_P1;PMS_P2;Temp;Humidity;BMP_temperature;BMP_pressure;BME280_temperature;BME280_humidity;BME280_pressure;Samples;Min_cycle;Max_cycle;Signal;HPM_P1;HPM_P2
2023/11/04 00:02:01;;;;;;;0.83;0.83;;;;;;;7.25;88.22;97731.53;5075146;28;20274;-68
2023/11/04 00:04:31;;;;;;;0.52;0.52;;;;;;;7.29;89.55;97728.91;5075392;28;20075;-68
2023/11/04 00:07:00;;;;;;;0.55;0.55;;;;;;;7.40;89.32;97731.25;5075381;28;20052;-72
2023/11/04 00:09:30;;;;;;;0.68;0.68;;;;;;;7.43;89.28;97741.34;5075033;28;20052;-68
2023/11/04 00:12:19;;;;;;;0.30;0.30;;;;;;;7.48;89.08;97744.63;5075224;28;20560;-71
2023/11/04 00:14:49;;;;;;;0.80;0.45;;;;;;;7.55;89.88;97747.88;5075150;28;20074;-69
2023/11/04 00:17:18;;;;;;;0.30;0.30;;;;;;;7.54;90.12;97743.66;5074867;28;20098;-71
2023/11/04 00:19:47;;;;;;;0.40;0.40;;;;;;;7.55;89.70;97741.09;5074719;28;20055;-72
2023/11/04 00:22:16;;;;;;;25.77;24.42;;;;;;;7.61;90.15;97743.50;5074704;28;20524;-71
2023/11/04 00:24:52;;;;;;;0.60;0.60;;;;;;;7.66;90.01;97744.25;5074617;28;20071;-69
2023/11/04 00:27:22;;;;;;;0.45;0.45;;;;;;;7.66;89.83;97754.41;5074622;28;20280;-69
2023/11/04 00:29:51;;;;;;;0.45;0.45;;;;;;;7.71;90.13;97752.63;5073910;28;20043;-70
2023/11/04 00:32:22;;;;;;;0.82;0.82;;;;;;;7.76;90.59;97750.81;5075087;28;20036;-68
2023/11/04 00:35:11;;;;;;;0.40;0.40;;;;;;;7.84;90.78;97753.22;5059850;28;20090;-70
2023/11/04 00:38:00;;;;;;;0.35;0.35;;;;;;;7.88;90.14;97757.34;5060285;28;20060;-68
2023/11/04 00:41:26;;;;;;;0.30;0.30;;;;;;;7.88;90.39;97764.97;5060267;28;20056;-68
2023/11/04 00:44:15;;;;;;;1.23;1.13;;;;;;;7.90;90.54;97763.22;5074215;28;20136;-68
2023/11/04 00:47:04;;;;;;;0.37;0.37;;;;;;;7.92;90.74;97767.41;5058795;28;20049;-68
2023/11/04 00:49:54;;;;;;;0.57;0.57;;;;;;;7.96;90.30;97769.03;5073179;28;20063;-70
2023/11/04 00:52:49;;;;;;;0.28;0.28;;;;;;;7.94;91.64;97759.78;5059581;28;20045;-69
2023/11/04 00:55:38;;;;;;;0.82;0.75;;;;;;;8.04;90.38;97769.69;5073531;28;20105;-70
2023/11/04 00:58:28;;;;;;;0.60;0.60;;;;;;;7.86;91.09;97728.63;5073869;28;20084;-69
2023/11/04 01:01:17;;;;;;;0.50;0.50;;;;;;;8.11;90.18;97761.06;5059324;28;20110;-69
2023/11/04 01:04:06;;;;;;;0.40;0.40;;;;;;;8.06;91.39;97757.78;5073301;28;20550;-70
2023/11/04 01:06:55;;;;;;;2.35;2.13;;;;;;;8.02;90.66;97763.81;5073266;28;20139;-68
2023/11/04 01:09:57;;;;;;;1.27;0.70;;;;;;;7.99;90.97;97774.03;5073854;28;20121;-70
2023/11/04 01:12:45;;;;;;;0.40;0.40;;;;;;;7.98;91.00;97777.44;5073679;28;20052;-69
2023/11/04 01:15:36;;;;;;;0.30;0.30;;;;;;;8.02;91.31;97773.97;5059459;28;20052;-71
2023/11/04 01:18:25;;;;;;;3.05;0.93;;;;;;;8.03;90.37;97770.56;5072758;28;20052;-70
2023/11/04 01:21:14;;;;;;;0.73;0.70;;;;;;;8.03;90.86;97775.66;5073067;28;20052;-70
2023/11/04 01:24:03;;;;;;;0.50;0.50;;;;;;;7.95;90.76;97774.97;5073281;28;20373;-68
2023/11/04 01:26:52;;;;;;;1.23;1.13;;;;;;;7.96;90.96;97769.03;5072915;28;20083;-69
2023/11/04 01:29:42;;;;;;;0.95;0.95;;;;;;;7.99;90.97;97774.03;5073212;28;20048;-71
2023/11/04 01:32:32;;;;;;;4.18;1.95;;;;;;;8.02;90.99;97779.03;5073210;28;20049;-68
2023/11/04 01:35:21;;;;;;;0.38;0.38;;;;;;;7.97;91.24;97757.97;5073146;28;20515;-70
2023/11/04 01:38:10;;;;;;;0.40;0.40;;;;;;;8.14;90.99;97772.84;5073273;28;20083;-70
2023/11/04 01:40:59;;;;;;;0.27;0.27;;;;;;;8.11;91.66;97776.28;5073287;28;20777;-69
2023/11/04 01:44:22;;;;;;;0.68;0.68;;;;;;;8.11;91.23;97773.75;5058811;28;20099;-71
2023/11/04 01:47:12;;;;;;;1.10;1.05;;;;;;;8.13;91.15;97765.28;5059534;28;20053;-68
2023/11/04 01:50:02;;;;;;;;;;;;;;;8.13;91.03;97780.53;5072644;28;20059;-70
2023/11/04 01:52:52;;;;;;;0.57;0.57;;;;;;;8.15;91.53;97778.78;5072728;28;19927;-70
2023/11/04 01:55:41;;;;;;;0.77;0.77;;;;;;;8.13;91.44;97775.44;5072714;28;20061;-68
2023/11/04 01:58:32;;;;;;;2.90;1.75;;;;;;;8.15;91.23;97774.53;5073462;28;20063;-69
2023/11/04 02:01:22;;;;;;;0.60;0.60;;;;;;;8.01;91.34;97762.13;5077001;28;20385;-70
2023/11/04 02:04:12;;;;;;;0.45;0.45;;;;;;;8.09;91.71;97782.28;5076763;28;20056;-69
2023/11/04 02:07:03;;;;;;;0.80;0.80;;;;;;;8.09;90.92;97783.13;5076624;28;20060;-70
2023/11/04 02:09:52;;;;;;;0.50;0.50;;;;;;;8.08;91.92;97789.09;5062783;28;20140;-70
2023/11/04 02:12:42;;;;;;;0.35;0.35;;;;;;;8.07;90.99;97792.47;5076816;28;20053;-70
2023/11/04 02:15:31;;;;;;;0.65;0.60;;;;;;;8.18;91.24;97791.44;5076954;28;20489;-68
2023/11/04 02:18:20;;;;;;;0.55;0.55;;;;;;;8.24;91.55;97788.72;5063027;28;20041;-71
2023/11/04 02:21:11;;;;;;;0.38;0.38;;;;;;;8.34;90.90;97787.69;5076107;28;20044;-70
2023/11/04 02:24:00;;;;;;;2.13;1.92;;;;;;;8.24;90.84;97788.72;5076591;28;20051;-69
2023/11/04 02:26:50;;;;;;;0.85;0.85;;;;;;;8.27;90.76;97798.88;5076671;28;20130;-71
2023/11/04 02:29:39;;;;;;;1.48;1.38;;;;;;;8.31;90.46;97803.00;5076634;28;20130;-70
2023/11/04 02:32:30;;;;;;;1.83;0.98;;;;;;;8.26;90.76;97807.31;5075758;28;20150;-69
2023/11/04 02:35:19;;;;;;;0.40;0.40;;;;;;;8.19;90.41;97814.25;5076388;28;20044;-71
2023/11/04 02:38:09;;;;;;;1.35;1.25;;;;;;;8.09;89.97;97815.31;5076006;28;20080;-70
2023/11/04 02:40:58;;;;;;;0.77;0.77;;;;;;;8.02;90.66;97819.69;5076078;28;20049;-70
2023/11/04 02:43:47;;;;;;;0.50;0.50;;;;;;;8.05;90.67;97829.78;5076217;28;20505;-69
2023/11/04 02:46:36;;;;;;;1.27;1.17;;;;;;;8.07;89.98;97838.22;5076158;28;20056;-70
2023/11/04 02:49:25;;;;;;;0.83;0.83;;;;;;;8.04;91.12;97837.41;5075439;28;20052;-69
2023/11/04 02:52:14;;;;;;;1.05;1.05;;;;;;;8.13;90.52;97836.41;5076317;28;20045;-69
2023/11/04 02:55:05;;;;;;;0.40;0.40;;;;;;;8.16;90.43;97821.13;5075707;28;20056;-69
2023/11/04 02:57:54;;;;;;;0.80;0.80;;;;;;;8.26;90.75;97837.81;5076295;28;20037;-70
2023/11/04 03:00:43;;;;;;;0.65;0.65;;;;;;;8.26;90.46;97835.28;5076095;28;20152;-69
2023/11/04 03:03:32;;;;;;;0.55;0.55;;;;;;;8.18;90.76;97821.91;5075851;28;20500;-70
2023/11/04 03:06:23;;;;;;;0.70;0.70;;;;;;;8.31;91.07;97830.97;5061672;28;20410;-71
2023/11/04 03:09:12;;;;;;;0.68;0.63;;;;;;;8.35;90.48;97830.84;5074945;28;20147;-70
2023/11/04 03:12:02;;;;;;;1.30;0.87;;;;;;;8.35;90.18;97838.47;5075263;28;20059;-70
2023/11/04 03:14:52;;;;;;;0.88;0.88;;;;;;;8.18;90.50;97817.69;5075573;28;20622;-71
2023/11/04 03:17:42;;;;;;;2.22;1.48;;;;;;;8.32;90.73;97842.81;5075339;28;20452;-71
2023/11/04 03:20:31;;;;;;;0.73;0.73;;;;;;;8.32;90.30;97842.81;5061824;28;20048;-68
2023/11/04 03:23:20;;;;;;;1.80;1.55;;;;;;;8.34;91.26;97847.00;5074908;28;20076;-69
2023/11/04 03:26:09;;;;;;;0.98;0.98;;;;;;;8.32;90.93;97852.97;5075669;28;20044;-71
2023/11/04 03:29:00;;;;;;;0.97;0.97;;;;;;;8.30;90.50;97857.25;5074901;28;20127;-71
2023/11/04 03:31:48;;;;;;;2.25;1.30;;;;;;;8.29;90.92;97863.19;5075455;28;20371;-69
2023/11/04 03:34:37;;;;;;;0.57;0.57;;;;;;;8.28;90.93;97864.91;5075665;28;20052;-68
2023/11/04 03:37:26;;;;;;;0.50;0.50;;;;;;;8.28;90.15;97866.63;5075221;28;20052;-71
2023/11/04 03:40:16;;;;;;;2.63;1.97;;;;;;;8.29;90.70;97879.28;5075124;28;20059;-71
2023/11/04 03:43:04;;;;;;;;;;;;;;;8.29;90.78;97888.63;5075060;28;20684;-69
2023/11/04 03:45:55;;;;;;;0.80;0.80;;;;;;;8.31;91.31;97877.53;5075159;28;20015;-68
2023/11/04 03:48:44;;;;;;;0.73;0.73;;;;;;;8.26;91.08;97863.22;5074665;28;20055;-70
2023/11/04 03:51:34;;;;;;;2.42;1.88;;;;;;;8.32;90.83;97863.13;5074680;28;20048;-68
2023/11/04 03:54:23;;;;;;;1.65;1.55;;;;;;;8.30;90.59;97869.97;5074397;28;20457;-70
2023/11/04 03:57:13;;;;;;;0.63;0.63;;;;;;;8.26;90.62;97869.19;5074902;28;20044;-70
2023/11/04 04:00:02;;;;;;;0.43;0.43;;;;;;;8.31;91.32;97871.63;5074761;28;20474;-68
2023/11/04 04:03:00;;;;;;;1.38;1.27;;;;;;;8.32;90.60;97868.22;5074828;28;20363;-70
2023/11/04 04:05:49;;;;;;;2.05;1.33;;;;;;;8.34;90.41;97866.47;5074640;28;20045;-71
2023/11/04 04:08:38;;;;;;;1.40;1.07;;;;;;;8.34;91.35;97871.56;5074653;28;20052;-68
2023/11/04 04:11:27;;;;;;;0.32;0.32;;;;;;;8.30;91.60;97875.06;5074863;28;20087;-68
2023/11/04 04:14:16;;;;;;;1.70;1.58;;;;;;;8.24;90.68;97873.44;5074153;28;20070;-69
2023/11/04 04:17:05;;;;;;;0.77;0.77;;;;;;;8.26;91.13;97870.84;5074497;28;20045;-68
2023/11/04 04:19:55;;;;;;;1.38;1.27;;;;;;;8.26;91.09;97863.22;5074042;28;20386;-68
2023/11/04 04:22:45;;;;;;;1.75;1.25;;;;;;;8.18;90.76;97849.88;5074021;28;20066;-69
2023/11/04 04:25:34;;;;;;;0.75;0.75;;;;;;;8.28;91.16;97871.72;5073767;28;20090;-70
2023/11/04 04:28:23;;;;;;;0.57;0.57;;;;;;;8.28;91.40;97871.72;5074233;28;20055;-70
2023/11/04 04:31:12;;;;;;;1.30;1.20;;;;;;;8.20;90.94;97874.38;5073849;28;20052;-70
2023/11/04 04:34:01;;;;;;;2.78;1.80;;;;;;;8.19;91.18;97869.31;5074369;28;20051;-70
2023/11/04 04:36:51;;;;;;;3.03;1.75;;;;;;;8.21;90.99;97880.25;5074116;28;20044;-70
2023/11/04 04:39:40;;;;;;;1.95;1.80;;;;;;;7.94;90.72;97820.72;5073665;28;20098;-68
2023/11/04 04:42:28;;;;;;;2.63;1.38;;;;;;;8.16;90.89;97871.94;5074576;28;20049;-70
2023/11/04 04:45:18;;;;;;;;;;;;;;;8.04;91.12;97868.75;5073890;28;20055;-70
2023/11/04 04:48:07;;;;;;;1.45;1.23;;;;;;;8.02;90.61;97860.31;5073929;28;20015;-68
2023/11/04 04:50:55;;;;;;;1.40;1.20;;;;;;;8.04;90.62;97865.38;5073758;28;20050;-70
2023/11/04 04:53:46;;;;;;;1.25;1.17;;;;;;;8.02;91.28;97870.47;5073733;28;20289;-68
2023/11/04 04:56:35;;;;;;;0.73;0.73;;;;;;;8.00;90.57;97877.31;5073492;28;20087;-69
2023/11/04 04:59:24;;;;;;;1.48;1.38;;;;;;;7.98;90.39;97866.34;5073306;28;20061;-70
2023/11/04 05:02:13;;;;;;;1.23;1.13;;;;;;;8.00;90.84;97892.53;5073413;28;20048;-68
2023/11/04 05:05:02;;;;;;;1.43;1.33;;;;;;;7.88;90.61;97892.78;5073522;28;20044;-70
2023/11/04 05:07:52;;;;;;;1.27;1.17;;;;;;;7.83;90.45;97894.56;5073481;28;20055;-68
2023/11/04 05:10:42;;;;;;;0.60;0.60;;;;;;;7.80;91.50;97902.22;5073217;28;20072;-70
2023/11/04 05:13:31;;;;;;;0.80;0.80;;;;;;;7.80;91.29;97894.63;5073808;28;20052;-68
2023/11/04 05:16:20;;;;;;;1.40;1.30;;;;;;;7.82;91.08;97903.03;5073137;28;20051;-68
2023/11/04 05:19:09;;;;;;;0.55;0.55;;;;;;;7.85;91.08;97902.97;5073107;28;20083;-68
2023/11/04 05:21:58;;;;;;;1.10;1.02;;;;;;;7.90;91.00;97905.44;5073248;28;20059;-68
2023/11/04 05:24:48;;;;;;;1.00;1.00;;;;;;;7.90;91.58;97895.28;5087441;28;20044;-70
2023/11/04 05:27:38;;;;;;;1.80;1.55;;;;;;;7.83;91.13;97902.19;5073064;28;20066;-70
2023/11/04 05:30:27;;;;;;;1.60;1.50;;;;;;;7.77;90.88;97889.63;5073193;28;20126;-70
2023/11/04 05:33:17;;;;;;;1.87;1.70;;;;;;;7.87;90.84;97913.94;5072962;28;20052;-69
2023/11/04 05:36:08;;;;;;;1.63;1.15;;;;;;;7.77;91.11;97902.31;5072818;28;20340;-68
2023/11/04 05:38:56;;;;;;;0.50;0.50;;;;;;;7.91;91.21;97914.75;5072894;28;20482;-70
2023/11/04 05:41:45;;;;;;;1.63;1.50;;;;;;;7.91;91.21;97907.13;5073077;28;20064;-69
2023/11/04 05:44:35;;;;;;;4.30;0.70;;;;;;;7.93;91.77;97916.38;5073386;28;20059;-68
2023/11/04 05:47:25;;;;;;;1.05;1.05;;;;;;;7.88;91.81;97899.56;5073031;28;20304;-69
2023/11/04 05:50:14;;;;;;;0.80;0.80;;;;;;;8.01;91.87;97919.59;5072636;28;20037;-69
2023/11/04 05:53:04;;;;;;;;;;;;;;;8.04;91.29;97923.78;5073143;28;20397;-69
2023/11/04 05:55:53;;;;;;;1.50;1.10;;;;;;;8.06;90.98;97938.13;5073012;28;19927;-69
2023/11/04 05:58:41;;;;;;;2.30;2.03;;;;;;;8.07;91.04;97937.28;5072407;28;20405;-70
2023/11/04 06:01:32;;;;;;;1.15;1.05;;;;;;;8.08;91.64;97931.34;5072886;28;20512;-70
2023/11/04 06:04:21;;;;;;;1.30;1.23;;;;;;;8.15;91.74;97921.06;5073423;28;20072;-70
2023/11/04 06:07:10;;;;;;;1.02;0.98;;;;;;;8.20;91.55;97929.44;5072700;28;20137;-71
2023/11/04 06:09:59;;;;;;;0.88;0.85;;;;;;;8.21;91.50;97936.16;5072519;28;20460;-71
2023/11/04 06:12:48;;;;;;;2.70;1.58;;;;;;;8.08;91.40;97900.88;5072745;28;20044;-70
2023/11/04 06:15:37;;;;;;;2.15;1.95;;;;;;;8.23;90.51;97930.19;5073280;28;20056;-69
2023/11/04 06:18:28;;;;;;;1.88;1.67;;;;;;;8.23;91.96;97929.38;5072704;28;20144;-70
2023/11/04 06:21:17;;;;;;;0.80;0.80;;;;;;;8.25;90.75;97925.09;5072328;28;20107;-70
2023/11/04 06:24:07;;;;;;;1.25;1.15;;;;;;;8.31;90.97;97928.38;5072685;28;20139;-70
2023/11/04 06:26:55;;;;;;;;;;;;;;;8.35;91.55;97929.16;5072504;28;20045;-70
2023/11/04 06:29:44;;;;;;;1.63;1.52;;;;;;;8.37;91.73;97920.66;5072951;28;19927;-70
2023/11/04 06:32:34;;;;;;;0.52;0.52;;;;;;;8.03;91.07;97868.78;5072448;28;20559;-71
2023/11/04 06:35:24;;;;;;;1.70;1.60;;;;;;;8.32;91.29;97927.53;5072294;28;20049;-69
2023/11/04 06:38:13;;;;;;;2.55;2.35;;;;;;;8.30;91.50;97915.72;5072197;28;20048;-70
2023/11/04 06:41:04;;;;;;;2.20;2.00;;;;;;;8.31;90.79;97925.84;5072436;28;20049;-70
2023/11/04 06:43:54;;;;;;;;;;;;;;;8.34;91.76;97912.22;5072890;28;20044;-71
2023/11/04 06:46:48;;;;;;;5.43;1.40;;;;;;;8.42;91.50;97907.84;5075799;28;19920;-69
2023/11/04 06:49:37;;;;;;;1.55;1.45;;;;;;;8.44;91.00;97906.09;5076343;28;20135;-69
2023/11/04 06:52:29;;;;;;;6.03;2.92;;;;;;;8.36;91.38;97892.69;5089755;28;20056;-70
2023/11/04 06:54:59;;;;;;;1.42;1.35;;;;;;;8.55;91.26;97907.53;5076766;28;20047;-70
2023/11/04 06:57:29;;;;;;;1.10;1.00;;;;;;;8.60;90.88;97904.88;5076484;28;20497;-69
2023/11/04 06:59:58;;;;;;;0.80;0.80;;;;;;;8.53;90.49;97904.19;5076365;28;20123;-69
2023/11/04 07:02:27;;;;;;;2.53;1.53;;;;;;;8.50;90.37;97895.78;5076656;28;20037;-69
2023/11/04 07:04:59;;;;;;;;;;;;;;;8.50;90.16;97903.41;5076647;28;20393;-68
2023/11/04 07:07:30;;;;;;;1.58;1.48;;;;;;;8.48;90.07;97890.75;5076857;28;19920;-71
2023/11/04 07:09:59;;;;;;;0.80;0.80;;;;;;;8.56;90.10;97888.03;5076377;28;20059;-68
2023/11/04 07:12:29;;;;;;;2.95;2.58;;;;;;;8.58;89.95;97878.66;5076206;28;20048;-69
2023/11/04 07:15:46;;;;;;;2.17;1.98;;;;;;;8.67;89.87;97870.84;5055752;28;20040;-69
2023/11/04 07:18:17;;;;;;;1.38;1.27;;;;;;;8.75;89.95;97877.44;5075777;28;20041;-70
2023/11/04 07:21:05;;;;;;;2.10;1.75;;;;;;;8.83;89.66;97882.31;5076126;28;20052;-69
2023/11/04 07:23:35;;;;;;;2.70;2.33;;;;;;;8.97;89.51;97887.97;5055781;28;20033;-69
2023/11/04 07:26:05;;;;;;;10.15;2.58;;;;;;;9.10;89.10;97876.59;5055782;28;20041;-69
2023/11/04 07:28:35;;;;;;;2.85;1.25;;;;;;;9.12;88.60;97879.94;5056146;28;20482;-69
2023/11/04 07:31:06;;;;;;;2.10;1.90;;;;;;;9.05;89.23;97877.56;5056009;28;20380;-68
2023/11/04 07:33:36;;;;;;;0.82;0.80;;;;;;;9.20;89.09;97875.50;5055677;28;20041;-68
2023/11/04 07:36:06;;;;;;;1.35;1.25;;;;;;;9.36;89.22;97874.25;5056169;28;20053;-69
2023/11/04 07:38:37;;;;;;;4.07;1.75;;;;;;;9.31;88.13;97865.88;5055561;28;20128;-69
2023/11/04 07:41:07;;;;;;;3.85;1.75;;;;;;;9.42;88.11;97879.22;5055575;28;20041;-68
2023/11/04 07:43:36;;;;;;;2.00;1.83;;;;;;;9.34;87.95;97860.72;5055578;28;20080;-70
2023/11/04 07:46:06;;;;;;;1.55;1.10;;;;;;;9.59;87.68;97880.47;5055627;28;20063;-70
2023/11/04 07:48:35;;;;;;;2.78;1.73;;;;;;;9.68;87.50;97881.06;5055513;28;20470;-69
2023/11/04 07:51:04;;;;;;;0.95;0.80;;;;;;;9.81;87.14;97887.50;5055425;28;20041;-69
2023/11/04 07:53:33;;;;;;;2.38;2.08;;;;;;;9.69;86.49;97892.09;5055238;28;20045;-69
2023/11/04 07:56:04;;;;;;;2.77;1.77;;;;;;;9.54;86.32;97887.41;5055140;28;20072;-68
2023/11/04 07:58:33;;;;;;;0.90;0.88;;;;;;;9.55;85.47;97894.19;5055552;28;20048;-69
2023/11/04 08:01:02;;;;;;;3.63;2.40;;;;;;;9.71;85.60;97890.34;5055102;28;20037;-69
2023/11/04 08:03:31;;;;;;;2.25;2.05;;;;;;;9.79;85.53;97893.53;5055035;28;20569;-70
2023/11/04 08:06:00;;;;;;;2.50;1.95;;;;;;;9.74;85.29;97875.00;5055135;28;20060;-70
2023/11/04 08:08:29;;;;;;;1.90;1.75;;;;;;;9.98;84.62;97890.44;5054675;28;20106;-68
2023/11/04 08:10:58;;;;;;;1.27;0.80;;;;;;;10.15;84.36;97891.75;5055239;28;20487;-69
2023/11/04 08:13:29;;;;;;;2.50;1.95;;;;;;;10.18;83.56;97887.38;5055044;28;20060;-69
2023/11/04 08:15:58;;;;;;;2.45;1.75;;;;;;;10.08;82.94;97893.56;5054913;28;20124;-70
2023/11/04 08:18:31;;;;;;;5.30;1.75;;;;;;;10.01;83.19;97899.72;5054721;28;20040;-70
2023/11/04 08:21:02;;;;;;;1.75;1.60;;;;;;;10.08;82.33;97902.06;5055095;28;20515;-70
2023/11/04 08:23:31;;;;;;;3.33;1.23;;;;;;;10.34;82.94;97898.81;5054695;28;20045;-69
2023/11/04 08:26:01;;;;;;;1.73;1.57;;;;;;;10.41;82.35;97896.94;5055273;28;20041;-69
2023/11/04 08:28:32;;;;;;;1.38;1.27;;;;;;;10.47;81.69;97894.19;5054923;28;20052;-70
2023/11/04 08:31:01;;;;;;;0.95;0.85;;;;;;;10.53;81.63;97894.84;5053608;28;20048;-70
2023/11/04 08:33:31;;;;;;;0.63;0.63;;;;;;;10.55;80.69;97893.13;5054563;28;20132;-68
2023/11/04 08:36:02;;;;;;;3.25;1.55;;;;;;;10.62;80.70;97892.03;5054503;28;20049;-70
2023/11/04 08:38:32;;;;;;;1.33;1.05;;;;;;;10.54;79.97;97900.78;5055052;28;20127;-70
2023/11/04 08:41:02;;;;;;;2.33;1.83;;;;;;;10.48;79.56;97891.63;5054283;28;20080;-69
2023/11/04 08:43:32;;;;;;;0.80;0.80;;;;;;;10.58;79.97;97892.19;5054291;28;20076;-68
2023/11/04 08:46:02;;;;;;;1.30;1.23;;;;;;;10.84;79.58;97904.16;5054574;28;20068;-68
2023/11/04 08:48:31;;;;;;;1.63;1.50;;;;;;;11.10;79.67;97906.72;5054244;28;20052;-69
2023/11/04 08:51:00;;;;;;;2.25;2.05;;;;;;;11.31;79.44;97906.88;5054195;28;20037;-70
2023/11/04 08:53:30;;;;;;;1.30;1.20;;;;;;;11.40;78.81;97909.13;5054231;28;20045;-69
2023/11/04 08:55:59;;;;;;;2.58;1.95;;;;;;;11.78;78.99;97905.34;5054701;28;20053;-69
2023/11/04 08:58:28;;;;;;;1.33;1.23;;;;;;;12.06;79.08;97906.06;5053990;28;20045;-69
2023/11/04 09:00:58;;;;;;;0.73;0.73;;;;;;;12.27;78.61;97906.19;5053927;28;20041;-70
2023/11/04 09:03:27;;;;;;;2.25;1.50;;;;;;;12.33;77.94;97898.31;5054179;28;20449;-68
2023/11/04 09:05:56;;;;;;;3.95;1.92;;;;;;;12.42;77.15;97900.53;5054396;28;20120;-69
2023/11/04 09:08:27;;;;;;;0.70;0.70;;;;;;;12.42;76.17;97901.34;5054156;28;20427;-69
2023/11/04 09:10:56;;;;;;;1.25;1.02;;;;;;;12.38;74.85;97891.28;5053790;28;20045;-68
2023/11/04 09:13:25;;;;;;;1.05;0.95;;;;;;;12.29;72.93;97894.16;5054029;28;20128;-68
2023/11/04 09:15:54;;;;;;;1.13;1.02;;;;;;;12.32;72.83;97878.72;5053929;28;20087;-70
2023/11/04 09:18:24;;;;;;;1.13;1.02;;;;;;;12.45;72.54;97874.81;5053731;28;20051;-68
2023/11/04 09:20:54;;;;;;;0.60;0.60;;;;;;;12.45;71.67;97869.72;5053124;28;20429;-70
2023/11/04 09:23:23;;;;;;;1.10;1.00;;;;;;;12.54;71.39;97869.38;5053885;28;20072;-70
2023/11/04 09:25:51;;;;;;;8.77;1.55;;;;;;;12.50;72.09;97862.69;5053755;28;20686;-68
2023/11/04 09:28:20;;;;;;;1.00;0.93;;;;;;;12.43;72.62;97866.38;5053550;28;20052;-70
2023/11/04 09:30:51;;;;;;;1.40;1.30;;;;;;;12.42;72.94;97859.59;5053566;28;20285;-70
2023/11/04 09:33:20;;;;;;;2.70;1.63;;;;;;;12.72;73.56;97863.53;5053554;28;20174;-70
2023/11/04 09:35:51;;;;;;;2.85;1.38;;;;;;;12.71;72.96;97856.75;5053862;28;20044;-69
2023/11/04 09:38:20;;;;;;;1.33;0.75;;;;;;;12.78;73.45;97838.56;5053467;28;20048;-70
2023/11/04 09:40:50;;;;;;;1.85;1.17;;;;;;;12.82;73.05;97833.28;5053742;28;20491;-71
2023/11/04 09:43:19;;;;;;;0.32;0.32;;;;;;;12.88;72.87;97830.50;5053238;28;20128;-69
2023/11/04 09:45:49;;;;;;;1.35;1.25;;;;;;;12.63;72.73;97833.19;5054037;28;20049;-67
2023/11/04 09:48:18;;;;;;;0.77;0.77;;;;;;;12.46;73.23;97826.16;5053041;28;20056;-69
2023/11/04 09:50:50;;;;;;;2.72;2.17;;;;;;;12.57;73.17;97823.19;5053521;28;20049;-70
2023/11/04 09:53:27;;;;;;;0.77;0.77;;;;;;;12.47;72.56;97816.75;5053324;28;20095;-71
2023/11/04 09:55:56;;;;;;;1.35;1.25;;;;;;;12.49;72.75;97805.56;5053373;28;20048;-67
2023/11/04 09:58:27;;;;;;;1.17;0.90;;;;;;;12.75;72.78;97802.00;5053511;28;20049;-67
2023/11/04 10:00:56;;;;;;;2.58;1.45;;;;;;;12.88;71.79;97795.50;5053516;28;20133;-69
2023/11/04 10:03:25;;;;;;;1.00;0.95;;;;;;;12.91;70.85;97797.91;5053478;28;20144;-67
2023/11/04 10:05:55;;;;;;;0.60;0.60;;;;;;;12.87;70.63;97786.13;5052190;28;20049;-71
2023/11/04 10:08:25;;;;;;;0.40;0.40;;;;;;;13.09;70.95;97788.69;5053486;28;20052;-68
2023/11/04 10:10:54;;;;;;;1.42;1.30;;;;;;;13.07;70.08;97783.66;5053390;28;20052;-68
2023/11/04 10:13:23;;;;;;;1.27;1.17;;;;;;;13.22;70.06;97793.22;5053194;28;20056;-68
2023/11/04 10:15:52;;;;;;;2.50;1.20;;;;;;;13.48;69.63;97792.16;5053254;28;20035;-71
2023/11/04 10:18:21;;;;;;;0.68;0.68;;;;;;;13.76;69.21;97773.84;5053875;28;20044;-70
2023/11/04 10:20:50;;;;;;;1.13;1.00;;;;;;;13.93;69.10;97767.06;5056311;28;20048;-72
2023/11/04 10:23:21;;;;;;;0.63;0.60;;;;;;;13.92;69.04;97767.13;5057225;28;20414;-70
2023/11/04 10:25:52;;;;;;;1.52;1.20;;;;;;;13.83;68.50;97767.53;5057362;28;20045;-69
2023/11/04 10:28:23;;;;;;;2.78;0.80;;;;;;;13.84;67.56;97761.53;5057104;28;20048;-71
2023/11/04 10:31:02;;;;;;;1.00;0.93;;;;;;;13.39;67.19;97765.19;5057340;28;20051;-69
2023/11/04 10:33:35;;;;;;;0.80;0.77;;;;;;;13.38;67.27;97763.53;5057148;28;20079;-68
2023/11/04 10:36:08;;;;;;;0.82;0.82;;;;;;;13.64;67.83;97766.69;5056763;28;20041;-68
2023/11/04 10:38:37;;;;;;;1.52;1.42;;;;;;;13.54;67.53;97752.59;5056802;28;20516;-69
2023/11/04 10:41:08;;;;;;;1.40;1.25;;;;;;;13.20;67.47;97754.03;5056757;28;20589;-71
2023/11/04 10:43:42;;;;;;;0.95;0.77;;;;;;;13.40;67.27;97750.66;5056858;28;20140;-68
2023/11/04 10:46:18;;;;;;;0.75;0.75;;;;;;;13.59;66.81;97748.09;5056633;28;20053;-72
2023/11/04 10:48:51;;;;;;;0.77;0.77;;;;;;;13.70;66.69;97733.91;5056706;28;20529;-70
2023/11/04 10:51:25;;;;;;;2.45;1.50;;;;;;;13.96;66.42;97735.34;5055400;28;20048;-69
2023/11/04 10:54:09;;;;;;;0.63;0.63;;;;;;;13.99;65.43;97719.78;5056468;28;20040;-71
2023/11/04 10:56:44;;;;;;;0.73;0.73;;;;;;;13.92;65.25;97723.53;5056441;28;20131;-71
2023/11/04 10:59:20;;;;;;;2.03;1.10;;;;;;;14.00;65.46;97721.47;5056468;28;20037;-69
2023/11/04 11:01:52;;;;;;;0.40;0.40;;;;;;;14.19;66.01;97716.31;5056589;28;20044;-68
2023/11/04 11:04:21;;;;;;;0.60;0.60;;;;;;;14.26;65.93;97723.66;5056177;28;20122;-70
2023/11/04 11:06:52;;;;;;;1.15;1.00;;;;;;;14.29;66.43;97718.38;5056152;28;20099;-71
2023/11/04 11:09:24;;;;;;;3.03;1.35;;;;;;;14.02;64.97;97701.69;5056049;28;20072;-70
2023/11/04 11:12:06;;;;;;;0.40;0.40;;;;;;;13.87;64.58;97710.91;5056456;28;20045;-68
2023/11/04 11:14:36;;;;;;;1.77;0.95;;;;;;;13.83;65.06;97708.56;5056073;28;20060;-70
2023/11/04 11:17:05;;;;;;;1.17;1.08;;;;;;;14.03;64.66;97708.50;5056040;28;20045;-71
2023/11/04 11:19:47;;;;;;;0.77;0.77;;;;;;;14.02;63.83;97709.38;5055830;28;20494;-69
2023/11/04 11:22:23;;;;;;;0.77;0.77;;;;;;;14.09;64.23;97705.63;5055944;28;20057;-69
2023/11/04 11:24:55;;;;;;;1.67;0.90;;;;;;;14.18;62.50;97700.06;5054867;28;20049;-70
2023/11/04 11:27:26;;;;;;;0.73;0.73;;;;;;;14.20;63.33;97702.59;5055955;28;20048;-70
2023/11/04 11:29:56;;;;;;;1.00;0.88;;;;;;;13.71;63.65;97650.16;5055260;28;20045;-68
2023/11/04 11:32:35;;;;;;;3.25;0.93;;;;;;;13.64;63.87;97689.78;5056297;28;20402;-68
2023/11/04 11:35:07;;;;;;;1.10;1.00;;;;;;;13.46;64.89;97696.56;5056033;28;20045;-71
2023/11/04 11:37:37;;;;;;;1.00;0.90;;;;;;;13.22;65.23;97695.09;5055573;28;20305;-68
2023/11/04 11:40:13;;;;;;;1.85;1.02;;;;;;;13.13;66.02;97691.19;5056018;28;20037;-69
2023/11/04 11:42:44;;;;;;;2.75;1.95;;;;;;;13.59;65.90;97684.03;5055434;28;20132;-70
2023/11/04 11:45:13;;;;;;;0.60;0.60;;;;;;;13.53;64.88;97676.63;5055498;28;20052;-69
2023/11/04 11:47:43;;;;;;;0.60;0.60;;;;;;;13.48;65.19;97676.84;5056062;28;20091;-69
2023/11/04 11:50:11;;;;;;;;;;;;;;;13.44;64.96;97681.25;5055826;28;20053;-69
2023/11/04 11:52:40;;;;;;;0.50;0.50;;;;;;;13.38;64.97;97676.41;5055343;28;19920;-69
2023/11/04 11:55:10;;;;;;;1.83;1.38;;;;;;;13.60;65.14;97678.84;5055552;28;20040;-69
2023/11/04 11:57:40;;;;;;;0.40;0.40;;;;;;;13.48;65.25;97676.84;5055371;28;20102;-69
2023/11/04 12:00:11;;;;;;;0.50;0.50;;;;;;;13.41;64.96;97681.38;5055175;28;20087;-69
2023/11/04 12:02:42;;;;;;;0.90;0.85;;;;;;;13.39;64.81;97667.81;5055194;28;20060;-69
2023/11/04 12:05:11;;;;;;;0.70;0.70;;;;;;;13.42;65.13;97657.44;5055282;28;20068;-69
2023/11/04 12:07:40;;;;;;;;;;;;;;;13.71;64.86;97662.97;5055829;28;20479;-70
2023/11/04 12:10:10;;;;;;;0.40;0.40;;;;;;;14.06;64.66;97665.56;5055417;28;20351;-71
2023/11/04 12:12:41;;;;;;;0.47;0.47;;;;;;;14.15;64.29;97656.63;5055237;28;20380;-70
2023/11/04 12:15:12;;;;;;;0.43;0.43;;;;;;;14.26;63.15;97654.38;5055238;28;20075;-73
2023/11/04 12:17:42;;;;;;;0.80;0.80;;;;;;;14.42;63.06;97657.88;5055470;28;20138;-72
2023/11/04 12:20:11;;;;;;;0.50;0.50;;;;;;;14.40;61.94;97654.56;5055660;28;20132;-72
2023/11/04 12:22:40;;;;;;;1.23;0.75;;;;;;;14.60;62.27;97651.03;5054691;28;20037;-72
2023/11/04 12:25:10;;;;;;;1.05;0.88;;;;;;;14.76;61.88;97657.88;5054785;28;20045;-68
2023/11/04 12:27:46;;;;;;;0.73;0.73;;;;;;;14.77;61.59;97657.00;5054680;28;20110;-71
2023/11/04 12:30:18;;;;;;;0.43;0.43;;;;;;;14.67;61.19;97660.91;5054587;28;20403;-69
2023/11/04 12:32:48;;;;;;;0.98;0.93;;;;;;;14.46;60.30;97656.84;5054899;28;20044;-68
2023/11/04 12:35:18;;;;;;;0.38;0.38;;;;;;;14.29;59.46;97656.78;5054793;28;20087;-68
2023/11/04 12:37:49;;;;;;;0.70;0.70;;;;;;;14.15;60.12;97654.06;5054611;28;20040;-70
2023/11/04 12:40:20;;;;;;;0.45;0.45;;;;;;;14.18;59.72;97655.66;5053218;28;20044;-72
2023/11/04 12:42:50;;;;;;;0.50;0.50;;;;;;;14.08;60.30;97648.38;5052753;28;20052;-71